createdAt,value
2022-09-24T00:01:29.049Z,7.90
2022-09-24T00:03:59.418Z,8.00
2022-09-24T00:06:26.512Z,7.65
2022-09-24T00:08:56.886Z,7.78
2022-09-24T00:11:24.933Z,5.00
2022-09-24T00:13:52.369Z,9.50
2022-09-24T00:16:21.652Z,10.13
2022-09-24T00:18:47.482Z,6.10
2022-09-24T00:21:18.436Z,8.13
2022-09-24T00:23:48.237Z,8.25
2022-09-24T00:26:32.608Z,9.88
2022-09-24T00:28:59.287Z,5.57
2022-09-24T00:31:27.230Z,10.95
2022-09-24T00:33:53.879Z,8.30
2022-09-24T00:36:21.030Z,9.95
2022-09-24T00:38:53.009Z,6.28
2022-09-24T00:41:20.981Z,10.82
2022-09-24T00:43:48.666Z,9.02
2022-09-24T00:46:21.148Z,12.70
2022-09-24T00:48:49.687Z,11.63
2022-09-24T00:51:20.165Z,7.97
2022-09-24T00:53:49.033Z,8.70
2022-09-24T00:56:16.178Z,11.35
2022-09-24T00:58:51.632Z,7.85
2022-09-24T01:03:46.280Z,11.10
2022-09-24T01:06:13.170Z,7.82
2022-09-24T01:08:39.723Z,12.40
2022-09-24T01:11:50.453Z,9.15
2022-09-24T01:14:44.239Z,9.93
2022-09-24T01:17:44.941Z,8.30
2022-09-24T01:20:10.727Z,9.07
2022-09-24T01:22:54.373Z,22.90
2022-09-24T01:25:32.348Z,11.02
2022-09-24T01:28:31.290Z,11.68
2022-09-24T01:31:03.316Z,7.95
2022-09-24T01:33:31.872Z,9.23
2022-09-24T01:36:06.092Z,9.13
2022-09-24T01:38:37.902Z,8.15
2022-09-24T01:41:07.007Z,8.23
2022-09-24T01:43:33.274Z,9.13
2022-09-24T01:46:03.450Z,12.73
2022-09-24T01:48:29.632Z,9.38
2022-09-24T01:51:27.145Z,8.98
2022-09-24T01:54:26.448Z,8.90
2022-09-24T01:57:07.172Z,8.77
2022-09-24T01:59:43.351Z,12.93
2022-09-24T02:02:28.179Z,8.02
2022-09-24T02:05:26.502Z,12.90
2022-09-24T02:08:04.431Z,10.02
2022-09-24T02:10:37.200Z,7.78
2022-09-24T02:13:06.976Z,11.45
2022-09-24T02:15:36.657Z,12.98
2022-09-24T02:18:08.239Z,8.73
2022-09-24T02:20:35.813Z,9.43
2022-09-24T02:23:04.185Z,13.30
2022-09-24T02:25:36.537Z,8.95
2022-09-24T02:28:02.535Z,7.47
2022-09-24T02:30:32.237Z,9.15
2022-09-24T02:32:58.861Z,7.85
2022-09-24T02:35:24.676Z,10.13
2022-09-24T02:37:50.471Z,6.70
2022-09-24T02:40:16.412Z,8.10
2022-09-24T02:42:42.911Z,8.48
2022-09-24T02:45:10.617Z,8.35
2022-09-24T02:47:36.878Z,7.65
2022-09-24T02:50:03.111Z,10.68
2022-09-24T02:52:28.922Z,11.25
2022-09-24T02:54:54.718Z,12.75
2022-09-24T02:57:20.517Z,11.52
2022-09-24T02:59:51.457Z,8.73
2022-09-24T03:02:17.284Z,11.23
2022-09-24T03:04:43.106Z,12.75
2022-09-24T03:07:09.529Z,13.20
2022-09-24T03:09:35.276Z,15.07
2022-09-24T03:12:01.563Z,20.42
2022-09-24T03:14:27.430Z,22.98
2022-09-24T03:16:53.213Z,23.95
2022-09-24T03:19:19.022Z,19.23
2022-09-24T03:21:44.757Z,16.25
2022-09-24T03:24:10.594Z,21.15
2022-09-24T03:26:37.307Z,18.55
2022-09-24T03:29:03.530Z,21.90
2022-09-24T03:31:29.381Z,22.98
2022-09-24T03:33:56.670Z,17.35
2022-09-24T03:36:25.036Z,16.08
2022-09-24T03:38:55.988Z,14.20
2022-09-24T03:41:26.867Z,15.07
2022-09-24T03:43:53.418Z,17.67
2022-09-24T03:46:19.508Z,14.77
2022-09-24T03:48:46.516Z,16.08
2022-09-24T03:51:15.090Z,11.32
2022-09-24T03:53:41.166Z,15.43
2022-09-24T03:56:07.941Z,15.07
2022-09-24T03:58:37.180Z,14.95
2022-09-24T04:01:03.099Z,12.88
2022-09-24T04:03:28.906Z,14.90
2022-09-24T04:05:55.046Z,13.00
2022-09-24T04:08:22.826Z,10.88
2022-09-24T04:10:49.914Z,12.20
2022-09-24T04:13:16.945Z,14.02
2022-09-24T04:15:42.974Z,17.08
2022-09-24T04:18:09.305Z,17.67
2022-09-24T04:20:36.148Z,12.27
2022-09-24T04:23:03.230Z,18.00
2022-09-24T04:25:30.792Z,15.65
2022-09-24T04:28:02.079Z,23.25
2022-09-24T04:30:29.297Z,14.18
2022-09-24T04:32:59.172Z,15.15
2022-09-24T04:35:25.151Z,15.90
2022-09-24T04:37:50.947Z,15.15
2022-09-24T04:40:17.817Z,13.85
2022-09-24T04:42:45.625Z,14.80
2022-09-24T04:45:13.078Z,17.05
2022-09-24T04:47:41.927Z,21.65
2022-09-24T04:50:10.626Z,18.40
2022-09-24T04:52:37.314Z,19.15
2022-09-24T04:55:04.230Z,18.98
2022-09-24T04:57:35.562Z,15.18
2022-09-24T05:00:07.608Z,25.10
2022-09-24T05:02:33.508Z,23.35
2022-09-24T05:04:59.425Z,20.30
2022-09-24T05:07:25.933Z,17.67
2022-09-24T05:09:51.734Z,19.83
2022-09-24T05:12:19.781Z,23.77
2022-09-24T05:14:46.012Z,25.98
2022-09-24T05:17:11.879Z,23.85
2022-09-24T05:19:37.700Z,18.45
2022-09-24T05:22:03.592Z,22.98
2022-09-24T05:24:29.430Z,19.23
2022-09-24T05:27:10.343Z,18.10
2022-09-24T05:29:42.633Z,18.70
2022-09-24T05:32:14.601Z,18.58
2022-09-24T05:34:42.955Z,18.60
2022-09-24T05:37:09.697Z,18.17
2022-09-24T05:39:35.573Z,19.30
2022-09-24T05:42:03.506Z,19.17
2022-09-24T05:44:30.514Z,19.13
2022-09-24T05:46:56.778Z,22.58
2022-09-24T05:49:23.097Z,25.02
2022-09-24T05:51:50.235Z,23.27
2022-09-24T05:54:17.210Z,21.02
2022-09-24T05:56:43.441Z,20.52
2022-09-24T05:59:09.756Z,21.73
2022-09-24T06:01:35.636Z,22.45
2022-09-24T06:04:06.167Z,20.55
2022-09-24T06:06:34.731Z,17.15
2022-09-24T06:09:00.707Z,15.25
2022-09-24T06:11:27.424Z,18.10
2022-09-24T06:13:53.201Z,14.98
2022-09-24T06:16:19.209Z,17.20
2022-09-24T06:18:45.702Z,19.05
2022-09-24T06:21:14.054Z,19.17
2022-09-24T06:23:41.834Z,14.40
2022-09-24T06:26:10.735Z,15.70
2022-09-24T06:28:37.510Z,19.88
2022-09-24T06:31:03.945Z,18.45
2022-09-24T06:33:29.977Z,23.67
2022-09-24T06:36:00.119Z,18.30
2022-09-24T06:38:26.675Z,18.88
2022-09-24T06:40:52.695Z,20.77
2022-09-24T06:43:18.516Z,21.23
2022-09-24T06:45:44.820Z,23.42
2022-09-24T06:48:12.821Z,22.48
2022-09-24T06:50:41.420Z,19.30
2022-09-24T06:53:08.231Z,21.00
2022-09-24T06:55:35.282Z,23.92
2022-09-24T06:58:05.866Z,16.63
2022-09-24T07:00:32.676Z,17.33
2022-09-24T07:02:58.627Z,22.33
2022-09-24T07:05:24.673Z,18.17
2022-09-24T07:07:50.906Z,22.42
2022-09-24T07:10:16.799Z,21.95
2022-09-24T07:12:42.875Z,26.35
2022-09-24T07:15:09.721Z,23.77
2022-09-24T07:17:35.718Z,22.90
2022-09-24T07:20:02.836Z,23.75
2022-09-24T07:22:28.642Z,29.38
2022-09-24T07:24:54.390Z,21.33
2022-09-24T07:27:22.992Z,23.63
2022-09-24T07:29:49.151Z,25.60
2022-09-24T07:32:18.971Z,27.20
2022-09-24T07:34:45.203Z,24.52
2022-09-24T07:37:11.681Z,23.35
2022-09-24T07:39:37.557Z,26.58
2022-09-24T07:42:05.000Z,21.80
2022-09-24T07:44:30.857Z,22.77
2022-09-24T07:46:57.697Z,24.42
2022-09-24T07:49:23.865Z,28.65
2022-09-24T07:51:49.778Z,22.70
2022-09-24T07:54:17.375Z,25.80
2022-09-24T07:56:43.450Z,25.10
2022-09-24T07:59:10.473Z,22.98
2022-09-24T08:01:36.900Z,22.55
2022-09-24T08:04:03.975Z,23.73
2022-09-24T08:06:37.872Z,27.05
2022-09-24T08:09:04.873Z,24.80
2022-09-24T08:11:30.652Z,26.60
2022-09-24T08:13:57.038Z,27.90
2022-09-24T08:16:25.162Z,25.75
2022-09-24T08:18:51.106Z,24.10
2022-09-24T08:21:17.114Z,26.05
2022-09-24T08:23:43.409Z,30.65
2022-09-24T08:26:10.966Z,25.67
2022-09-24T08:28:37.526Z,26.65
2022-09-24T08:31:08.263Z,26.38
2022-09-24T08:33:35.680Z,29.52
2022-09-24T08:36:07.380Z,26.02
2022-09-24T08:38:34.011Z,26.20
2022-09-24T08:41:36.697Z,26.70
2022-09-24T08:44:49.521Z,24.17
2022-09-24T08:47:47.446Z,29.38
2022-09-24T08:50:19.039Z,21.88
2022-09-24T08:52:53.845Z,21.45
2022-09-24T08:55:46.687Z,17.52
2022-09-24T08:58:41.890Z,19.45
2022-09-24T09:01:36.712Z,19.65
2022-09-24T09:04:09.966Z,15.80
2022-09-24T09:07:01.516Z,20.15
2022-09-24T09:09:45.553Z,18.35
2022-09-24T09:12:20.102Z,18.33
2022-09-24T09:15:17.079Z,13.30
2022-09-24T09:17:45.803Z,12.07
2022-09-24T09:20:17.034Z,12.57
2022-09-24T09:22:47.512Z,13.43
2022-09-24T09:25:25.135Z,14.82
2022-09-24T09:27:57.846Z,11.88
2022-09-24T09:30:23.901Z,10.90
2022-09-24T09:33:00.888Z,12.63
2022-09-24T09:35:46.037Z,11.85
2022-09-24T09:38:27.831Z,13.23
2022-09-24T09:41:05.767Z,11.52
2022-09-24T09:43:31.957Z,11.88
2022-09-24T09:46:19.667Z,11.50
2022-09-24T09:48:51.556Z,10.73
2022-09-24T09:51:22.324Z,12.77
2022-09-24T09:53:59.749Z,11.60
2022-09-24T09:56:31.425Z,14.73
2022-09-24T09:59:06.242Z,15.00
2022-09-24T10:01:35.042Z,11.38
2022-09-24T10:04:03.849Z,12.27
2022-09-24T10:06:35.466Z,12.52
2022-09-24T10:09:18.919Z,11.68
2022-09-24T10:11:46.117Z,11.32
2022-09-24T10:14:14.173Z,12.05
2022-09-24T10:16:47.340Z,13.48
2022-09-24T10:19:24.044Z,10.55
2022-09-24T10:21:52.012Z,12.55
2022-09-24T10:24:28.489Z,12.73
2022-09-24T10:26:54.418Z,13.45
2022-09-24T10:29:57.056Z,10.70
2022-09-24T10:32:25.520Z,11.32
2022-09-24T10:35:20.937Z,13.77
2022-09-24T10:37:55.474Z,10.63
2022-09-24T10:40:29.264Z,13.03
2022-09-24T10:43:00.131Z,13.48
2022-09-24T10:45:49.873Z,14.18
2022-09-24T10:48:18.981Z,16.58
2022-09-24T10:50:55.391Z,13.07
2022-09-24T10:53:43.403Z,11.02
2022-09-24T10:56:15.109Z,15.05
2022-09-24T10:59:03.165Z,14.60
2022-09-24T11:01:47.101Z,11.20
2022-09-24T11:04:33.983Z,12.13
2022-09-24T11:07:28.233Z,11.88
2022-09-24T11:10:00.447Z,11.13
2022-09-24T11:12:34.594Z,11.50
2022-09-24T11:15:11.132Z,13.38
2022-09-24T11:17:50.974Z,9.57
2022-09-24T11:20:22.596Z,8.98
2022-09-24T11:23:23.461Z,10.50
2022-09-24T11:26:03.168Z,9.40
2022-09-24T11:29:14.546Z,10.30
2022-09-24T11:31:49.805Z,8.82
2022-09-24T11:34:37.079Z,11.15
2022-09-24T11:37:22.088Z,11.10
2022-09-24T11:40:02.680Z,15.97
2022-09-24T11:42:57.616Z,10.18
2022-09-24T11:45:41.446Z,9.70
2022-09-24T11:48:23.215Z,9.70
2022-09-24T11:51:01.109Z,9.90
2022-09-24T11:53:44.259Z,12.02
2022-09-24T11:56:13.913Z,10.50
2022-09-24T11:58:48.116Z,11.38
2022-09-24T12:01:24.384Z,12.05
2022-09-24T12:04:05.249Z,9.02
2022-09-24T12:06:44.222Z,10.85
2022-09-24T12:09:22.325Z,10.75
2022-09-24T12:11:54.570Z,12.60
2022-09-24T12:14:30.098Z,9.65
2022-09-24T12:17:06.594Z,12.52
2022-09-24T12:19:41.429Z,10.07
2022-09-24T12:22:09.940Z,12.70
2022-09-24T12:24:53.508Z,11.90
2022-09-24T12:27:34.226Z,12.27
2022-09-24T12:30:36.330Z,14.00
2022-09-24T12:33:22.347Z,14.68
2022-09-24T12:36:18.819Z,15.18
2022-09-24T12:38:49.768Z,14.05
2022-09-24T12:41:24.717Z,14.18
2022-09-24T12:44:00.652Z,14.77
2022-09-24T12:46:40.430Z,13.43
2022-09-24T12:49:24.670Z,15.48
2022-09-24T12:51:56.008Z,14.65
2022-09-24T12:54:31.079Z,13.25
2022-09-24T12:57:25.278Z,15.70
2022-09-24T12:59:59.941Z,15.65
2022-09-24T13:02:46.762Z,14.57
2022-09-24T13:05:28.573Z,15.40
2022-09-24T13:08:00.133Z,15.40
2022-09-24T13:10:27.553Z,14.93
2022-09-24T13:12:55.116Z,16.85
2022-09-24T13:15:34.881Z,14.52
2022-09-24T13:18:10.384Z,13.90
2022-09-24T13:23:13.275Z,17.63
2022-09-24T13:25:39.099Z,13.43
2022-09-24T13:28:35.747Z,15.82
2022-09-24T13:31:22.971Z,14.43
2022-09-24T13:33:54.361Z,14.27
2022-09-24T13:36:48.189Z,15.30
2022-09-24T13:39:27.104Z,14.98
2022-09-24T13:42:03.361Z,13.00
2022-09-24T13:44:34.020Z,12.38
2022-09-24T13:47:38.228Z,11.80
2022-09-24T13:50:28.384Z,13.18
2022-09-24T13:52:56.966Z,11.93
2022-09-24T13:55:52.496Z,12.50
2022-09-24T13:58:32.586Z,14.75
2022-09-24T14:01:01.875Z,13.30
2022-09-24T14:03:28.759Z,13.57
2022-09-24T14:05:56.506Z,15.80
2022-09-24T14:08:24.045Z,14.82
2022-09-24T14:10:50.518Z,14.00
2022-09-24T14:13:25.861Z,13.68
2022-09-24T14:16:06.787Z,12.55
2022-09-24T14:18:33.260Z,15.43
2022-09-24T14:21:15.433Z,15.00
2022-09-24T14:23:52.047Z,16.02
2022-09-24T14:26:31.390Z,13.10
2022-09-24T14:29:05.462Z,11.32
2022-09-24T14:31:31.400Z,14.75
2022-09-24T14:34:03.314Z,13.43
2022-09-24T14:36:29.285Z,13.57
2022-09-24T14:39:04.791Z,14.35
2022-09-24T14:41:33.822Z,13.02
2022-09-24T14:44:05.404Z,12.75
2022-09-24T14:46:35.305Z,13.95
2022-09-24T14:49:16.755Z,11.50
2022-09-24T14:51:52.079Z,12.05
2022-09-24T14:54:28.110Z,13.13
2022-09-24T14:56:54.494Z,12.77
2022-09-24T14:59:35.498Z,13.60
2022-09-24T15:02:14.790Z,15.50
2022-09-24T15:04:45.430Z,13.70
2022-09-24T15:07:20.722Z,12.60
2022-09-24T15:10:01.759Z,13.95
2022-09-24T15:12:36.303Z,16.25
2022-09-24T15:15:26.611Z,15.40
2022-09-24T15:17:52.422Z,17.13
2022-09-24T15:20:18.268Z,15.35
2022-09-24T15:22:46.130Z,18.65
2022-09-24T15:25:13.770Z,16.35
2022-09-24T15:27:41.864Z,15.63
2022-09-24T15:30:16.918Z,15.25
2022-09-24T15:32:42.879Z,16.08
2022-09-24T15:35:13.959Z,14.07
2022-09-24T15:37:40.146Z,12.55
2022-09-24T15:40:29.964Z,14.60
2022-09-24T15:42:55.788Z,12.93
2022-09-24T15:45:23.687Z,13.13
2022-09-24T15:47:50.610Z,12.68
2022-09-24T15:50:18.320Z,14.98
2022-09-24T15:52:49.766Z,13.60
2022-09-24T15:55:18.479Z,14.07
2022-09-24T15:57:46.016Z,13.13
2022-09-24T16:00:20.360Z,11.95
2022-09-24T16:02:51.975Z,13.23
2022-09-24T16:05:18.653Z,17.55
2022-09-24T16:07:44.842Z,16.08
2022-09-24T16:10:12.611Z,15.70
2022-09-24T16:12:39.528Z,17.08
2022-09-24T16:15:06.384Z,16.20
2022-09-24T16:17:32.668Z,15.07
2022-09-24T16:19:58.760Z,17.90
2022-09-24T16:22:24.623Z,15.18
2022-09-24T16:24:50.422Z,19.38
2022-09-24T16:27:16.203Z,17.88
2022-09-24T16:29:41.916Z,17.50
2022-09-24T16:32:07.783Z,16.95
2022-09-24T16:34:33.844Z,19.45
2022-09-24T16:37:00.007Z,18.23
2022-09-24T16:39:25.765Z,19.98
2022-09-24T16:41:52.198Z,17.88
2022-09-24T16:44:18.541Z,18.80
2022-09-24T16:46:44.840Z,20.58
2022-09-24T16:49:11.697Z,20.73
2022-09-24T16:51:37.901Z,18.60
2022-09-24T16:54:07.364Z,20.45
2022-09-24T16:56:33.619Z,21.40
2022-09-24T16:58:59.798Z,21.60
2022-09-24T17:01:25.666Z,21.67
2022-09-24T17:03:56.228Z,26.13
2022-09-24T17:06:29.182Z,25.00
2022-09-24T17:09:14.154Z,24.20
2022-09-24T17:11:40.605Z,25.23
2022-09-24T17:14:11.561Z,30.90
2022-09-24T17:16:38.548Z,29.08
2022-09-24T17:19:06.587Z,31.63
2022-09-24T17:21:33.944Z,28.88
2022-09-24T17:23:59.810Z,33.28
2022-09-24T17:26:25.609Z,31.95
2022-09-24T17:28:53.336Z,30.83
2022-09-24T17:31:22.172Z,33.22
2022-09-24T17:34:02.264Z,29.55
2022-09-24T17:36:29.863Z,33.13
2022-09-24T17:38:56.797Z,30.98
2022-09-24T17:41:22.672Z,30.08
2022-09-24T17:43:49.152Z,32.15
2022-09-24T17:46:17.648Z,36.40
2022-09-24T17:48:45.801Z,33.40
2022-09-24T17:51:15.761Z,31.50
2022-09-24T17:53:42.343Z,32.17
2022-09-24T17:56:10.608Z,30.77
2022-09-24T17:58:38.350Z,31.05
2022-09-24T18:01:16.691Z,31.85
2022-09-24T18:03:43.232Z,34.17
2022-09-24T18:06:11.759Z,33.45
2022-09-24T18:08:44.855Z,34.35
2022-09-24T18:11:24.990Z,35.03
2022-09-24T18:13:53.329Z,34.38
2022-09-24T18:16:21.767Z,34.70
2022-09-24T18:18:50.617Z,34.35
2022-09-24T18:21:19.756Z,31.77
2022-09-24T18:23:46.173Z,34.78
2022-09-24T18:26:16.103Z,33.75
2022-09-24T18:28:44.936Z,34.28
2022-09-24T18:31:10.812Z,34.05
2022-09-24T18:33:39.033Z,34.10
2022-09-24T18:36:07.820Z,36.28
2022-09-24T18:38:34.585Z,32.83
2022-09-24T18:41:06.996Z,34.78
2022-09-24T18:43:32.963Z,33.75
2022-09-24T18:46:04.004Z,32.75
2022-09-24T18:48:30.098Z,34.88
2022-09-24T18:50:55.957Z,33.97
2022-09-24T18:53:21.758Z,36.78
2022-09-24T18:55:47.534Z,39.30
2022-09-24T18:58:13.393Z,39.15
2022-09-24T19:00:53.234Z,36.88
2022-09-24T19:03:21.272Z,39.40
2022-09-24T19:05:48.708Z,39.58
2022-09-24T19:08:14.642Z,38.67
2022-09-24T19:10:41.266Z,39.22
2022-09-24T19:13:07.128Z,36.28
2022-09-24T19:15:40.157Z,38.28
2022-09-24T19:18:11.264Z,40.42
2022-09-24T19:20:42.882Z,37.17
2022-09-24T19:23:09.227Z,36.42
2022-09-24T19:25:36.812Z,36.80
2022-09-24T19:28:04.308Z,36.63
2022-09-24T19:30:36.971Z,35.92
2022-09-24T19:33:03.033Z,39.88
2022-09-24T19:35:28.866Z,39.08
2022-09-24T19:37:54.663Z,37.92
2022-09-24T19:40:20.619Z,39.97
2022-09-24T19:42:46.408Z,40.17
2022-09-24T19:45:12.322Z,37.58
2022-09-24T19:47:38.127Z,40.05
2022-09-24T19:50:04.363Z,40.33
2022-09-24T19:52:31.384Z,40.05
2022-09-24T19:54:57.149Z,39.50
2022-09-24T19:57:22.932Z,36.97
2022-09-24T19:59:48.678Z,39.17
2022-09-24T20:02:14.614Z,38.53
2022-09-24T20:04:40.736Z,39.30
2022-09-24T20:07:07.065Z,38.63
2022-09-24T20:09:32.987Z,41.17
2022-09-24T20:11:59.014Z,40.47
2022-09-24T20:14:25.115Z,40.92
2022-09-24T20:16:50.975Z,41.95
2022-09-24T20:19:17.202Z,41.60
2022-09-24T20:21:43.031Z,40.47
2022-09-24T20:24:11.508Z,39.88
2022-09-24T20:26:56.080Z,38.90
2022-09-24T20:29:22.738Z,40.30
2022-09-24T20:31:52.399Z,40.75
2022-09-24T20:34:20.511Z,37.33
2022-09-24T20:36:46.879Z,37.10
2022-09-24T20:39:12.696Z,38.15
2022-09-24T20:41:38.453Z,36.33
2022-09-24T20:44:04.279Z,36.88
2022-09-24T20:46:30.209Z,36.63
2022-09-24T20:48:58.334Z,37.22
2022-09-24T20:51:25.617Z,37.97
2022-09-24T20:53:53.058Z,36.15
2022-09-24T20:56:19.678Z,37.28
2022-09-24T20:58:49.577Z,42.33
2022-09-24T21:01:16.798Z,42.38
2022-09-24T21:03:44.995Z,36.80
2022-09-24T21:06:12.018Z,40.03
2022-09-24T21:08:40.150Z,45.10
2022-09-24T21:11:08.457Z,36.03
2022-09-24T21:13:38.844Z,35.70
2022-09-24T21:16:04.845Z,37.63
2022-09-24T21:18:43.713Z,35.00
2022-09-24T21:21:17.651Z,33.45
2022-09-24T21:23:44.997Z,35.28
2022-09-24T21:26:17.956Z,35.38
2022-09-24T21:28:48.244Z,36.63
2022-09-24T21:31:16.445Z,36.85
2022-09-24T21:33:47.143Z,36.42
2022-09-24T21:36:17.891Z,37.20
2022-09-24T21:38:53.756Z,36.53
2022-09-24T21:41:23.969Z,38.50
2022-09-24T21:43:50.058Z,34.65
2022-09-24T21:46:15.973Z,33.42
2022-09-24T21:48:41.855Z,34.03
2022-09-24T21:51:10.537Z,32.05
2022-09-24T21:53:37.167Z,33.88
2022-09-24T21:56:04.349Z,32.40
2022-09-24T21:58:30.633Z,31.58
2022-09-24T22:01:04.682Z,32.58
2022-09-24T22:03:31.234Z,33.75
2022-09-24T22:05:58.909Z,34.92
2022-09-24T22:08:28.376Z,36.05
2022-09-24T22:11:03.683Z,36.53
2022-09-24T22:13:31.349Z,32.67
2022-09-24T22:15:59.092Z,34.00
2022-09-24T22:18:27.331Z,37.42
2022-09-24T22:20:54.726Z,34.00
2022-09-24T22:23:21.448Z,35.63
2022-09-24T22:25:53.496Z,35.80
2022-09-24T22:28:23.631Z,33.17
2022-09-24T22:30:50.489Z,35.50
2022-09-24T22:33:36.481Z,35.20
2022-09-24T22:38:30.151Z,41.08
2022-09-24T22:40:58.955Z,37.63
2022-09-24T22:43:24.772Z,37.38
2022-09-24T22:45:59.503Z,37.03
2022-09-24T22:48:25.366Z,35.28
2022-09-24T22:50:51.371Z,36.67
2022-09-24T22:53:17.442Z,39.70
2022-09-24T22:55:43.361Z,38.45
2022-09-24T22:58:09.152Z,38.35
2022-09-24T23:00:35.914Z,35.00
2022-09-24T23:03:02.254Z,37.38
2022-09-24T23:05:29.012Z,37.30
2022-09-24T23:07:55.438Z,37.60
2022-09-24T23:10:21.407Z,40.92
2022-09-24T23:12:47.479Z,39.13
2022-09-24T23:15:13.627Z,42.05
2022-09-24T23:17:39.453Z,41.42
2022-09-24T23:20:07.162Z,40.50
2022-09-24T23:22:32.916Z,43.63
2022-09-24T23:24:58.801Z,43.05
2022-09-24T23:27:24.881Z,44.28
2022-09-24T23:29:51.961Z,47.05
2022-09-24T23:32:18.601Z,45.22
2022-09-24T23:34:45.801Z,44.40
2022-09-24T23:37:11.982Z,44.45
2022-09-24T23:39:38.723Z,48.15
2022-09-24T23:42:06.227Z,42.05
2022-09-24T23:44:33.517Z,45.65
2022-09-24T23:47:00.660Z,49.15
2022-09-24T23:49:27.227Z,44.08
2022-09-24T23:51:53.157Z,41.25
2022-09-24T23:54:19.456Z,38.92
2022-09-24T23:56:45.304Z,41.05
2022-09-24T23:59:11.201Z,39.83
